Time,TemperatureF,DewpointF,PressureIn,WindDirection,WindDirectionDegrees,WindSpeedMPH,WindSpeedGustMPH,Humidity,HourlyPrecipIn,Conditions,Clouds,dailyrainin,SolarRadiationWatts/m^2,SoftwareType,DateUTC
2013-02-25 00:01:00,20.2,5.0,30.38,WNW,298,0.0,0.0,51,0.00,,CLR,0.00,0.00,VWS V14.01,2013-02-25 08:01:00,
2013-02-25 00:06:00,20.1,4.5,30.38,WNW,298,0.0,0.0,50,0.00,,CLR,0.00,0.00,VWS V14.01,2013-02-25 08:06:00,
2013-02-25 00:11:00,20.0,3.9,30.38,WNW,298,0.0,0.0,49,0.00,,CLR,0.00,0.00,VWS V14.01,2013-02-25 08:11:00,
2013-02-25 00:16:00,19.6,3.5,30.38,WNW,298,0.0,0.0,49,0.00,,CLR,0.00,0.00,VWS V14.01,2013-02-25 08:16:00,
2013-02-25 00:21:00,19.4,3.8,30.38,WNW,298,0.0,0.0,50,0.00,,CLR,0.00,0.00,VWS V14.01,2013-02-25 08:21:00,
2013-02-25 00:26:00,19.3,3.7,30.38,WNW,298,0.0,0.0,50,0.00,,CLR,0.00,0.00,VWS V14.01,2013-02-25 08:26:00,
2013-02-25 00:31:00,18.9,3.8,30.37,WNW,298,0.0,0.0,51,0.00,,CLR,0.00,0.00,VWS V14.01,2013-02-25 08:31:00,
2013-02-25 00:36:00,18.8,4.1,30.37,WNW,298,0.0,0.0,52,0.00,,CLR,0.00,0.00,VWS V14.01,2013-02-25 08:36:00,
2013-02-25 00:41:00,18.8,4.1,30.37,WNW,298,0.0,0.0,52,0.00,,CLR,0.00,0.00,VWS V14.01,2013-02-25 08:41:00,
2013-02-25 00:46:00,18.7,4.0,30.37,WNW,298,0.0,0.0,52,0.00,,CLR,0.00,0.00,VWS V14.01,2013-02-25 08:46:00,
2013-02-25 00:51:00,18.6,3.5,30.37,WNW,298,0.0,0.0,51,0.00,,CLR,0.00,0.00,VWS V14.01,2013-02-25 08:51:00,
2013-02-25 00:56:00,18.4,3.7,30.37,WNW,298,0.0,0.0,52,0.00,,CLR,0.00,0.00,VWS V14.01,2013-02-25 08:56:00,
2013-02-25 01:01:00,18.2,4.4,30.37,WNW,298,0.0,0.0,54,0.00,,CLR,0.00,0.00,VWS V14.01,2013-02-25 09:01:00,
2013-02-25 01:06:00,18.1,4.3,30.36,WNW,298,0.0,0.0,54,0.00,,CLR,0.00,0.00,VWS V14.01,2013-02-25 09:06:00,
2013-02-25 01:11:00,18.0,3.8,30.37,WNW,298,0.0,0.0,53,0.00,,CLR,0.00,0.00,VWS V14.01,2013-02-25 09:11:00,
2013-02-25 01:16:00,18.0,4.2,30.37,WNW,298,0.0,0.0,54,0.00,,CLR,0.00,0.00,VWS V14.01,2013-02-25 09:16:00,
2013-02-25 01:21:00,17.9,4.9,30.37,WNW,298,0.0,0.0,56,0.00,,CLR,0.00,0.00,VWS V14.01,2013-02-25 09:21:00,
2013-02-25 01:26:00,18.0,5.3,30.37,WNW,298,0.0,0.0,57,0.00,,CLR,0.00,0.00,VWS V14.01,2013-02-25 09:26:00,
2013-02-25 01:31:00,18.0,5.3,30.37,WNW,298,0.0,0.0,57,0.00,,CLR,0.00,0.00,VWS V14.01,2013-02-25 09:31:00,
2013-02-25 01:36:00,18.0,5.3,30.37,WNW,298,0.0,0.0,57,0.00,,CLR,0.00,0.00,VWS V14.01,2013-02-25 09:36:00,
2013-02-25 01:41:00,17.9,5.2,30.36,WNW,298,0.0,0.0,57,0.00,,CLR,0.00,0.00,VWS V14.01,2013-02-25 09:41:00,
2013-02-25 01:46:00,17.9,5.6,30.36,WNW,298,0.0,0.0,58,0.00,,CLR,0.00,0.00,VWS V14.01,2013-02-25 09:46:00,
2013-02-25 01:51:00,18.0,6.8,30.37,WNW,298,0.0,0.0,61,0.00,,CLR,0.00,0.00,VWS V14.01,2013-02-25 09:51:00,
2013-02-25 01:56:00,17.8,5.5,30.36,WNW,298,0.0,0.0,58,0.00,,CLR,0.00,0.00,VWS V14.01,2013-02-25 09:56:00,
2013-02-25 02:01:00,17.8,5.9,30.36,WNW,298,0.0,0.0,59,0.00,,CLR,0.00,0.00,VWS V14.01,2013-02-25 10:01:00,
2013-02-25 02:06:00,17.8,6.6,30.36,WNW,298,0.0,0.0,61,0.00,,CLR,0.00,0.00,VWS V14.01,2013-02-25 10:06:00,
2013-02-25 02:11:00,17.2,4.6,30.36,SSW,192,0.0,1.0,57,0.00,,CLR,0.00,0.00,VWS V14.01,2013-02-25 10:11:00,
2013-02-25 02:16:00,16.5,4.3,30.36,South,186,0.0,0.0,58,0.00,,CLR,0.00,0.00,VWS V14.01,2013-02-25 10:16:00,
2013-02-25 02:21:00,16.3,4.5,30.35,South,186,0.0,0.0,59,0.00,,CLR,0.00,0.00,VWS V14.01,2013-02-25 10:21:00,
2013-02-25 02:26:00,16.4,5.0,30.35,South,186,0.0,0.0,60,0.00,,CLR,0.00,0.00,VWS V14.01,2013-02-25 10:26:00,
2013-02-25 02:31:00,16.4,5.3,30.36,South,186,0.0,0.0,61,0.00,,CLR,0.00,0.00,VWS V14.01,2013-02-25 10:31:00,
2013-02-25 02:36:00,16.4,6.0,30.36,South,186,0.0,0.0,63,0.00,,CLR,0.00,0.00,VWS V14.01,2013-02-25 10:36:00,
2013-02-25 02:41:00,16.4,6.4,30.36,South,186,0.0,0.0,64,0.00,,CLR,0.00,0.00,VWS V14.01,2013-02-25 10:41:00,
2013-02-25 02:46:00,16.5,7.1,30.36,South,186,0.0,0.0,66,0.00,,CLR,0.00,0.00,VWS V14.01,2013-02-25 10:46:00,
2013-02-25 02:51:00,16.6,6.6,30.36,South,186,0.0,0.0,64,0.00,,CLR,0.00,0.00,VWS V14.01,2013-02-25 10:51:00,
2013-02-25 02:56:00,16.6,5.9,30.36,South,186,0.0,0.0,62,0.00,,CLR,0.00,0.00,VWS V14.01,2013-02-25 10:56:00,
2013-02-25 03:01:00,16.6,5.5,30.35,South,186,0.0,0.0,61,0.00,,CLR,0.00,0.00,VWS V14.01,2013-02-25 11:01:00,
2013-02-25 03:06:00,16.3,5.6,30.35,South,186,0.0,1.0,62,0.00,,CLR,0.00,0.00,VWS V14.01,2013-02-25 11:06:00,
2013-02-25 03:11:00,16.2,5.5,30.35,South,186,0.0,0.0,62,0.00,,CLR,0.00,0.00,VWS V14.01,2013-02-25 11:11:00,
2013-02-25 03:16:00,16.2,5.5,30.35,South,186,0.0,0.0,62,0.00,,CLR,0.00,0.00,VWS V14.01,2013-02-25 11:16:00,
2013-02-25 03:21:00,16.1,5.0,30.35,South,186,0.0,0.0,61,0.00,,CLR,0.00,0.00,VWS V14.01,2013-02-25 11:21:00,
2013-02-25 03:26:00,16.0,4.9,30.35,South,186,0.0,0.0,61,0.00,,CLR,0.00,0.00,VWS V14.01,2013-02-25 11:26:00,
2013-02-25 03:31:00,15.9,4.8,30.35,South,186,0.0,0.0,61,0.00,,CLR,0.00,0.00,VWS V14.01,2013-02-25 11:31:00,
2013-02-25 03:36:00,15.7,4.7,30.34,South,186,0.0,0.0,61,0.00,,CLR,0.00,0.00,VWS V14.01,2013-02-25 11:36:00,
2013-02-25 03:41:00,15.6,4.9,30.34,South,186,0.0,0.0,62,0.00,,CLR,0.00,0.00,VWS V14.01,2013-02-25 11:41:00,
2013-02-25 03:46:00,15.4,4.4,30.34,South,186,0.0,0.0,61,0.00,,CLR,0.00,0.00,VWS V14.01,2013-02-25 11:46:00,
2013-02-25 03:51:00,15.2,4.5,30.34,South,186,0.0,0.0,62,0.00,,CLR,0.00,0.00,VWS V14.01,2013-02-25 11:51:00,
2013-02-25 07:20:00,21.7,9.2,30.30,North,0,0.0,1.0,58,0.00,,CLR,0.00,50.00,VWS V14.01,2013-02-25 15:20:00,
2013-02-25 07:30:00,22.1,9.2,30.30,North,355,0.0,0.0,57,0.00,,CLR,0.00,65.00,VWS V14.01,2013-02-25 15:30:00,
2013-02-25 07:35:00,22.4,9.1,30.30,North,355,0.0,0.0,56,0.00,,BKN260,0.00,70.00,VWS V14.01,2013-02-25 15:35:00,
2013-02-25 07:40:00,22.5,9.2,30.30,North,355,0.0,0.0,56,0.00,,BKN260,0.00,77.00,VWS V14.01,2013-02-25 15:40:00,
2013-02-25 07:45:00,22.9,9.6,30.30,North,355,0.0,0.0,56,0.00,,BKN260,0.00,88.00,VWS V14.01,2013-02-25 15:45:00,
2013-02-25 07:50:00,23.2,9.4,30.30,North,355,0.0,0.0,55,0.00,,BKN260,0.00,91.00,VWS V14.01,2013-02-25 15:50:00,
2013-02-25 07:55:00,23.4,9.6,30.29,North,355,0.0,0.0,55,0.00,,BKN260,0.00,90.00,VWS V14.01,2013-02-25 15:55:00,
2013-02-25 08:00:00,23.6,9.8,30.29,North,355,1.0,1.0,55,0.00,,BKN260,0.00,91.00,VWS V14.01,2013-02-25 16:00:00,
2013-02-25 08:05:00,24.0,10.2,30.30,North,355,0.0,1.0,55,0.00,,BKN260,0.00,111.00,VWS V14.01,2013-02-25 16:05:00,
2013-02-25 08:10:00,24.8,10.5,30.30,North,355,0.0,0.0,54,0.00,,OVC260,0.00,114.00,VWS V14.01,2013-02-25 16:10:00,
2013-02-25 08:15:00,25.4,10.7,30.30,North,355,1.0,2.0,53,0.00,,OVC260,0.00,135.00,VWS V14.01,2013-02-25 16:15:00,
2013-02-25 08:20:00,26.1,11.3,30.30,North,355,1.0,2.0,53,0.00,,OVC260,0.00,171.00,VWS V14.01,2013-02-25 16:20:00,
2013-02-25 08:25:00,26.9,11.6,30.30,North,355,0.0,0.0,52,0.00,,OVC260,0.00,167.00,VWS V14.01,2013-02-25 16:25:00,
2013-02-25 08:30:00,27.5,11.3,30.30,North,355,0.0,0.0,50,0.00,,OVC260,0.00,178.00,VWS V14.01,2013-02-25 16:30:00,
2013-02-25 08:35:00,28.5,11.8,30.30,North,355,0.0,1.0,49,0.00,,OVC260,0.00,167.00,VWS V14.01,2013-02-25 16:35:00,
2013-02-25 08:40:00,29.0,11.8,30.30,North,355,0.0,2.0,48,0.00,,OVC260,0.00,199.00,VWS V14.01,2013-02-25 16:40:00,
2013-02-25 08:45:00,29.9,12.1,30.30,North,355,1.0,1.0,47,0.00,,OVC260,0.00,274.00,VWS V14.01,2013-02-25 16:45:00,
2013-02-25 08:50:00,30.7,12.9,30.29,North,355,0.0,0.0,47,0.00,,OVC260,0.00,383.00,VWS V14.01,2013-02-25 16:50:00,
2013-02-25 08:55:00,32.4,12.9,30.29,North,355,0.0,0.0,44,0.00,,OVC260,0.00,380.00,VWS V14.01,2013-02-25 16:55:00,
2013-02-25 09:00:00,33.5,13.4,30.29,North,355,0.0,0.0,43,0.00,,BKN250,0.00,381.00,VWS V14.01,2013-02-25 17:00:00,
2013-02-25 09:05:00,35.1,12.6,30.29,North,355,0.0,0.0,39,0.00,,BKN250,0.00,311.00,VWS V14.01,2013-02-25 17:05:00,
2013-02-25 09:10:00,36.2,13.1,30.29,West,279,0.0,1.0,38,0.00,,BKN250,0.00,450.00,VWS V14.01,2013-02-25 17:10:00,
2013-02-25 09:15:00,36.8,13.6,30.29,East,80,0.0,0.0,38,0.00,,BKN250,0.00,475.00,VWS V14.01,2013-02-25 17:15:00,
2013-02-25 09:20:00,37.1,12.0,30.29,NW,319,2.0,4.0,35,0.00,,BKN250,0.00,364.00,VWS V14.01,2013-02-25 17:20:00,
2013-02-25 09:25:00,37.0,11.2,30.29,WNW,290,0.0,0.0,34,0.00,,BKN250,0.00,339.00,VWS V14.01,2013-02-25 17:25:00,
2013-02-25 09:30:00,37.2,11.4,30.29,NE,44,0.0,1.0,34,0.00,,BKN250,0.00,483.00,VWS V14.01,2013-02-25 17:30:00,
2013-02-25 09:35:00,38.2,12.3,30.28,NNE,30,3.0,4.0,34,0.00,,BKN250,0.00,490.00,VWS V14.01,2013-02-25 17:35:00,
2013-02-25 09:40:00,38.8,12.2,30.28,ENE,62,1.0,2.0,33,0.00,,BKN250,0.00,499.00,VWS V14.01,2013-02-25 17:40:00,
2013-02-25 09:45:00,39.5,12.1,30.28,ESE,114,3.0,3.0,32,0.00,,BKN250,0.00,512.00,VWS V14.01,2013-02-25 17:45:00,
2013-02-25 09:50:00,40.1,12.6,30.27,SW,220,0.0,2.0,32,0.00,,BKN250,0.00,522.00,VWS V14.01,2013-02-25 17:50:00,
2013-02-25 09:55:00,40.1,11.9,30.27,SW,219,0.0,1.0,31,0.00,,BKN250,0.00,533.00,VWS V14.01,2013-02-25 17:55:00,
2013-02-25 10:00:00,40.8,12.5,30.27,South,189,1.0,2.0,31,0.00,,SCT260,0.00,541.00,VWS V14.01,2013-02-25 18:00:00,
2013-02-25 10:05:00,41.9,12.0,30.27,SE,146,0.0,3.0,29,0.00,,SCT260,0.00,552.00,VWS V14.01,2013-02-25 18:05:00,
2013-02-25 10:10:00,42.3,12.3,30.27,SSE,162,1.0,3.0,29,0.00,,SCT260,0.00,561.00,VWS V14.01,2013-02-25 18:10:00,
2013-02-25 10:15:00,42.3,12.3,30.25,South,180,3.0,5.0,29,0.00,,SCT260,0.00,573.00,VWS V14.01,2013-02-25 18:15:00,
2013-02-25 10:20:00,43.0,12.1,30.25,SE,138,2.0,2.0,28,0.00,,SCT260,0.00,580.00,VWS V14.01,2013-02-25 18:20:00,
2013-02-25 10:25:00,43.0,12.1,30.25,SSE,154,3.0,6.0,28,0.00,,SCT260,0.00,589.00,VWS V14.01,2013-02-25 18:25:00,
2013-02-25 10:30:00,44.0,13.0,30.25,WSW,244,5.0,5.0,28,0.00,,SCT260,0.00,596.00,VWS V14.01,2013-02-25 18:30:00,
2013-02-25 10:36:00,44.5,12.6,30.25,WSW,254,1.0,2.0,27,0.00,,SCT260,0.00,606.00,VWS V14.01,2013-02-25 18:36:00,
2013-02-25 10:41:00,44.2,12.4,30.25,ESE,109,2.0,4.0,27,0.00,,SCT260,0.00,612.00,VWS V14.01,2013-02-25 18:41:00,
2013-02-25 10:46:00,44.0,12.2,30.25,ESE,108,1.0,2.0,27,0.00,,SCT260,0.00,621.00,VWS V14.01,2013-02-25 18:46:00,
2013-02-25 10:51:00,44.0,13.0,30.25,SE,146,3.0,3.0,28,0.00,,SCT260,0.00,628.00,VWS V14.01,2013-02-25 18:51:00,
2013-02-25 10:56:00,44.4,13.4,30.24,ESE,106,0.0,2.0,28,0.00,,SCT260,0.00,631.00,VWS V14.01,2013-02-25 18:56:00,